sensor_id;sensor_type;location;lat;lon;timestamp;P1;durP1;ratioP1;P2;durP2;ratioP2
4700;SDS011;8724;51.272;6.554;2023-09-12T00:00:54;10.10;;;7.00;;
4700;SDS011;8724;51.272;6.554;2023-09-12T00:03:23;8.73;;;6.87;;
4700;SDS011;8724;51.272;6.554;2023-09-12T00:05:51;13.60;;;9.10;;
4700;SDS011;8724;51.272;6.554;2023-09-12T00:08:20;10.03;;;7.63;;
4700;SDS011;8724;51.272;6.554;2023-09-12T00:10:57;14.77;;;7.33;;
4700;SDS011;8724;51.272;6.554;2023-09-12T00:13:28;8.80;;;7.67;;
4700;SDS011;8724;51.272;6.554;2023-09-12T00:15:57;11.50;;;7.00;;
4700;SDS011;8724;51.272;6.554;2023-09-12T00:18:26;10.50;;;9.07;;
4700;SDS011;8724;51.272;6.554;2023-09-12T00:20:54;10.53;;;9.43;;
4700;SDS011;8724;51.272;6.554;2023-09-12T00:23:23;7.90;;;7.07;;
4700;SDS011;8724;51.272;6.554;2023-09-12T00:25:51;8.53;;;7.63;;
4700;SDS011;8724;51.272;6.554;2023-09-12T00:28:19;11.10;;;8.50;;
4700;SDS011;8724;51.272;6.554;2023-09-12T00:30:51;10.30;;;9.23;;
4700;SDS011;8724;51.272;6.554;2023-09-12T00:33:19;9.93;;;8.90;;
4700;SDS011;8724;51.272;6.554;2023-09-12T00:35:47;11.57;;;9.93;;
4700;SDS011;8724;51.272;6.554;2023-09-12T00:38:15;14.10;;;9.80;;
4700;SDS011;8724;51.272;6.554;2023-09-12T00:40:44;9.67;;;8.70;;
4700;SDS011;8724;51.272;6.554;2023-09-12T00:43:12;12.33;;;8.70;;
4700;SDS011;8724;51.272;6.554;2023-09-12T00:45:40;12.37;;;9.10;;
4700;SDS011;8724;51.272;6.554;2023-09-12T00:48:10;12.27;;;11.03;;
4700;SDS011;8724;51.272;6.554;2023-09-12T00:50:40;16.83;;;12.10;;
4700;SDS011;8724;51.272;6.554;2023-09-12T00:53:09;12.43;;;11.10;;
4700;SDS011;8724;51.272;6.554;2023-09-12T00:55:38;12.60;;;10.27;;
4700;SDS011;8724;51.272;6.554;2023-09-12T00:58:10;15.13;;;11.97;;
4700;SDS011;8724;51.272;6.554;2023-09-12T01:00:38;15.10;;;10.30;;
4700;SDS011;8724;51.272;6.554;2023-09-12T01:03:07;12.50;;;11.20;;
4700;SDS011;8724;51.272;6.554;2023-09-12T01:05:37;11.87;;;10.77;;
4700;SDS011;8724;51.272;6.554;2023-09-12T01:08:05;13.20;;;10.90;;
4700;SDS011;8724;51.272;6.554;2023-09-12T01:10:34;10.83;;;9.73;;
4700;SDS011;8724;51.272;6.554;2023-09-12T01:13:03;15.43;;;13.30;;
4700;SDS011;8724;51.272;6.554;2023-09-12T01:15:31;14.07;;;11.57;;
4700;SDS011;8724;51.272;6.554;2023-09-12T01:17:59;15.40;;;11.03;;
4700;SDS011;8724;51.272;6.554;2023-09-12T01:20:30;14.40;;;12.93;;
4700;SDS011;8724;51.272;6.554;2023-09-12T01:23:07;19.20;;;15.00;;
4700;SDS011;8724;51.272;6.554;2023-09-12T01:25:56;15.83;;;13.40;;
4700;SDS011;8724;51.272;6.554;2023-09-12T01:28:39;15.73;;;12.13;;
4700;SDS011;8724;51.272;6.554;2023-09-12T01:31:10;16.00;;;11.80;;
4700;SDS011;8724;51.272;6.554;2023-09-12T01:33:40;14.00;;;11.00;;
4700;SDS011;8724;51.272;6.554;2023-09-12T01:36:08;12.83;;;11.17;;
4700;SDS011;8724;51.272;6.554;2023-09-12T01:38:37;12.37;;;10.30;;
4700;SDS011;8724;51.272;6.554;2023-09-12T01:41:06;12.03;;;9.73;;
4700;SDS011;8724;51.272;6.554;2023-09-12T01:43:35;11.70;;;10.40;;
4700;SDS011;8724;51.272;6.554;2023-09-12T01:46:07;13.10;;;9.60;;
4700;SDS011;8724;51.272;6.554;2023-09-12T01:48:35;11.67;;;10.40;;
4700;SDS011;8724;51.272;6.554;2023-09-12T01:51:05;10.53;;;9.43;;
4700;SDS011;8724;51.272;6.554;2023-09-12T01:53:35;15.30;;;10.57;;
4700;SDS011;8724;51.272;6.554;2023-09-12T01:56:04;13.30;;;9.13;;
4700;SDS011;8724;51.272;6.554;2023-09-12T01:58:32;10.87;;;9.80;;
4700;SDS011;8724;51.272;6.554;2023-09-12T02:01:00;12.83;;;9.37;;
4700;SDS011;8724;51.272;6.554;2023-09-12T02:03:30;10.37;;;9.37;;
4700;SDS011;8724;51.272;6.554;2023-09-12T02:05:59;12.60;;;8.60;;
4700;SDS011;8724;51.272;6.554;2023-09-12T02:08:27;10.23;;;7.97;;
4700;SDS011;8724;51.272;6.554;2023-09-12T02:10:55;8.50;;;7.70;;
4700;SDS011;8724;51.272;6.554;2023-09-12T02:13:23;9.10;;;8.20;;
4700;SDS011;8724;51.272;6.554;2023-09-12T02:15:58;9.50;;;8.43;;
4700;SDS011;8724;51.272;6.554;2023-09-12T02:18:27;8.70;;;7.90;;
4700;SDS011;8724;51.272;6.554;2023-09-12T02:20:56;9.83;;;7.50;;
4700;SDS011;8724;51.272;6.554;2023-09-12T02:23:26;8.93;;;8.00;;
4700;SDS011;8724;51.272;6.554;2023-09-12T02:25:54;8.70;;;7.80;;
4700;SDS011;8724;51.272;6.554;2023-09-12T02:28:23;9.43;;;8.00;;
4700;SDS011;8724;51.272;6.554;2023-09-12T02:30:52;12.47;;;8.90;;
4700;SDS011;8724;51.272;6.554;2023-09-12T02:33:20;9.97;;;8.10;;
4700;SDS011;8724;51.272;6.554;2023-09-12T02:35:49;9.23;;;8.17;;
4700;SDS011;8724;51.272;6.554;2023-09-12T02:38:18;10.77;;;9.43;;
4700;SDS011;8724;51.272;6.554;2023-09-12T02:40:46;15.97;;;11.57;;
4700;SDS011;8724;51.272;6.554;2023-09-12T02:43:14;9.67;;;8.17;;
4700;SDS011;8724;51.272;6.554;2023-09-12T02:45:42;11.90;;;10.03;;
4700;SDS011;8724;51.272;6.554;2023-09-12T02:48:11;13.30;;;9.37;;
4700;SDS011;8724;51.272;6.554;2023-09-12T02:50:39;10.33;;;8.80;;
4700;SDS011;8724;51.272;6.554;2023-09-12T02:53:07;13.53;;;10.30;;
4700;SDS011;8724;51.272;6.554;2023-09-12T02:55:40;9.80;;;8.80;;
4700;SDS011;8724;51.272;6.554;2023-09-12T02:58:09;12.60;;;9.47;;
4700;SDS011;8724;51.272;6.554;2023-09-12T03:00:37;11.67;;;10.43;;
4700;SDS011;8724;51.272;6.554;2023-09-12T03:03:07;10.40;;;9.33;;
4700;SDS011;8724;51.272;6.554;2023-09-12T03:05:37;11.53;;;9.60;;
4700;SDS011;8724;51.272;6.554;2023-09-12T03:08:05;10.00;;;8.90;;
4700;SDS011;8724;51.272;6.554;2023-09-12T03:10:33;11.17;;;10.07;;
4700;SDS011;8724;51.272;6.554;2023-09-12T03:13:04;14.50;;;9.27;;
4700;SDS011;8724;51.272;6.554;2023-09-12T03:15:35;11.20;;;10.10;;
4700;SDS011;8724;51.272;6.554;2023-09-12T03:18:07;19.23;;;9.73;;
4700;SDS011;8724;51.272;6.554;2023-09-12T03:20:37;12.20;;;9.07;;
4700;SDS011;8724;51.272;6.554;2023-09-12T03:23:06;10.40;;;9.30;;
4700;SDS011;8724;51.272;6.554;2023-09-12T03:25:35;12.00;;;10.37;;
4700;SDS011;8724;51.272;6.554;2023-09-12T03:28:05;13.50;;;10.83;;
4700;SDS011;8724;51.272;6.554;2023-09-12T03:30:35;13.83;;;10.83;;
4700;SDS011;8724;51.272;6.554;2023-09-12T03:33:06;12.20;;;10.70;;
4700;SDS011;8724;51.272;6.554;2023-09-12T03:35:34;11.37;;;10.33;;
4700;SDS011;8724;51.272;6.554;2023-09-12T03:38:03;13.03;;;11.03;;
4700;SDS011;8724;51.272;6.554;2023-09-12T03:40:31;17.43;;;11.70;;
4700;SDS011;8724;51.272;6.554;2023-09-12T03:42:59;15.23;;;11.60;;
4700;SDS011;8724;51.272;6.554;2023-09-12T03:45:29;13.07;;;11.27;;
4700;SDS011;8724;51.272;6.554;2023-09-12T03:47:57;18.93;;;11.10;;
4700;SDS011;8724;51.272;6.554;2023-09-12T03:50:26;14.53;;;11.30;;
4700;SDS011;8724;51.272;6.554;2023-09-12T03:52:54;11.13;;;9.93;;
4700;SDS011;8724;51.272;6.554;2023-09-12T03:55:22;10.73;;;9.73;;
4700;SDS011;8724;51.272;6.554;2023-09-12T03:57:51;13.03;;;10.90;;
4700;SDS011;8724;51.272;6.554;2023-09-12T04:00:19;11.20;;;9.87;;
4700;SDS011;8724;51.272;6.554;2023-09-12T04:02:50;12.27;;;9.93;;
4700;SDS011;8724;51.272;6.554;2023-09-12T04:05:18;10.23;;;9.23;;
4700;SDS011;8724;51.272;6.554;2023-09-12T04:07:47;16.87;;;10.53;;
4700;SDS011;8724;51.272;6.554;2023-09-12T04:10:15;14.87;;;11.33;;
4700;SDS011;8724;51.272;6.554;2023-09-12T04:12:44;11.60;;;10.40;;
4700;SDS011;8724;51.272;6.554;2023-09-12T04:15:13;12.07;;;8.97;;
4700;SDS011;8724;51.272;6.554;2023-09-12T04:17:41;11.27;;;9.53;;
4700;SDS011;8724;51.272;6.554;2023-09-12T04:20:11;11.57;;;9.53;;
4700;SDS011;8724;51.272;6.554;2023-09-12T04:22:41;10.43;;;9.33;;
4700;SDS011;8724;51.272;6.554;2023-09-12T04:25:10;13.07;;;9.63;;
4700;SDS011;8724;51.272;6.554;2023-09-12T04:27:38;14.20;;;10.00;;
4700;SDS011;8724;51.272;6.554;2023-09-12T04:30:09;13.80;;;8.93;;
4700;SDS011;8724;51.272;6.554;2023-09-12T04:32:37;11.63;;;10.43;;
4700;SDS011;8724;51.272;6.554;2023-09-12T04:35:06;10.13;;;9.13;;
4700;SDS011;8724;51.272;6.554;2023-09-12T04:37:36;13.33;;;10.33;;
4700;SDS011;8724;51.272;6.554;2023-09-12T04:40:05;11.30;;;9.53;;
4700;SDS011;8724;51.272;6.554;2023-09-12T04:42:35;12.93;;;10.77;;
4700;SDS011;8724;51.272;6.554;2023-09-12T04:45:03;11.23;;;9.47;;
4700;SDS011;8724;51.272;6.554;2023-09-12T04:47:32;13.97;;;9.50;;
4700;SDS011;8724;51.272;6.554;2023-09-12T04:50:01;10.83;;;9.73;;
4700;SDS011;8724;51.272;6.554;2023-09-12T04:52:29;12.43;;;9.27;;
4700;SDS011;8724;51.272;6.554;2023-09-12T04:55:01;33.33;;;11.03;;
4700;SDS011;8724;51.272;6.554;2023-09-12T04:57:30;17.87;;;14.57;;
4700;SDS011;8724;51.272;6.554;2023-09-12T04:59:59;14.20;;;12.70;;
4700;SDS011;8724;51.272;6.554;2023-09-12T05:02:28;17.53;;;13.50;;
4700;SDS011;8724;51.272;6.554;2023-09-12T05:04:56;15.20;;;12.50;;
4700;SDS011;8724;51.272;6.554;2023-09-12T05:07:25;15.00;;;13.33;;
4700;SDS011;8724;51.272;6.554;2023-09-12T05:09:53;16.23;;;13.93;;
4700;SDS011;8724;51.272;6.554;2023-09-12T05:12:22;16.63;;;12.93;;
4700;SDS011;8724;51.272;6.554;2023-09-12T05:14:50;18.30;;;16.40;;
4700;SDS011;8724;51.272;6.554;2023-09-12T05:17:18;16.93;;;15.17;;
4700;SDS011;8724;51.272;6.554;2023-09-12T05:19:47;16.90;;;14.40;;
4700;SDS011;8724;51.272;6.554;2023-09-12T05:22:15;22.27;;;14.87;;
4700;SDS011;8724;51.272;6.554;2023-09-12T05:24:44;18.53;;;16.10;;
4700;SDS011;8724;51.272;6.554;2023-09-12T05:27:12;17.00;;;13.57;;
4700;SDS011;8724;51.272;6.554;2023-09-12T05:29:42;18.10;;;14.20;;
4700;SDS011;8724;51.272;6.554;2023-09-12T05:32:10;18.47;;;16.13;;
4700;SDS011;8724;51.272;6.554;2023-09-12T05:34:38;16.40;;;14.60;;
4700;SDS011;8724;51.272;6.554;2023-09-12T05:37:07;17.87;;;14.50;;
4700;SDS011;8724;51.272;6.554;2023-09-12T05:39:35;18.37;;;16.47;;
4700;SDS011;8724;51.272;6.554;2023-09-12T05:42:03;20.67;;;16.57;;
4700;SDS011;8724;51.272;6.554;2023-09-12T05:44:32;21.67;;;17.80;;
4700;SDS011;8724;51.272;6.554;2023-09-12T05:47:02;21.00;;;16.30;;
4700;SDS011;8724;51.272;6.554;2023-09-12T05:49:31;23.37;;;18.83;;
4700;SDS011;8724;51.272;6.554;2023-09-12T05:52:00;22.43;;;18.40;;
4700;SDS011;8724;51.272;6.554;2023-09-12T05:54:29;18.20;;;15.67;;
4700;SDS011;8724;51.272;6.554;2023-09-12T05:56:57;21.87;;;18.10;;
4700;SDS011;8724;51.272;6.554;2023-09-12T05:59:25;23.20;;;19.83;;
4700;SDS011;8724;51.272;6.554;2023-09-12T06:01:53;22.63;;;18.50;;
4700;SDS011;8724;51.272;6.554;2023-09-12T06:04:23;22.10;;;19.27;;
4700;SDS011;8724;51.272;6.554;2023-09-12T06:06:51;19.90;;;17.20;;
4700;SDS011;8724;51.272;6.554;2023-09-12T06:09:19;23.37;;;17.00;;
4700;SDS011;8724;51.272;6.554;2023-09-12T06:11:47;25.73;;;19.47;;
4700;SDS011;8724;51.272;6.554;2023-09-12T06:14:16;22.53;;;18.00;;
4700;SDS011;8724;51.272;6.554;2023-09-12T06:16:44;23.20;;;18.63;;
4700;SDS011;8724;51.272;6.554;2023-09-12T06:19:13;22.30;;;17.60;;
4700;SDS011;8724;51.272;6.554;2023-09-12T06:21:43;18.90;;;16.37;;
4700;SDS011;8724;51.272;6.554;2023-09-12T06:24:12;23.80;;;18.00;;
4700;SDS011;8724;51.272;6.554;2023-09-12T06:26:42;25.30;;;18.50;;
4700;SDS011;8724;51.272;6.554;2023-09-12T06:29:10;20.27;;;17.33;;
4700;SDS011;8724;51.272;6.554;2023-09-12T06:31:39;19.73;;;16.17;;
4700;SDS011;8724;51.272;6.554;2023-09-12T06:34:08;17.53;;;14.70;;
4700;SDS011;8724;51.272;6.554;2023-09-12T06:36:38;14.37;;;12.80;;
4700;SDS011;8724;51.272;6.554;2023-09-12T06:39:09;16.77;;;14.97;;
4700;SDS011;8724;51.272;6.554;2023-09-12T06:41:37;19.17;;;17.13;;
4700;SDS011;8724;51.272;6.554;2023-09-12T06:44:06;16.37;;;13.97;;
4700;SDS011;8724;51.272;6.554;2023-09-12T06:46:34;16.43;;;14.17;;
4700;SDS011;8724;51.272;6.554;2023-09-12T06:49:04;16.33;;;14.50;;
4700;SDS011;8724;51.272;6.554;2023-09-12T06:51:32;20.70;;;14.87;;
4700;SDS011;8724;51.272;6.554;2023-09-12T06:54:04;16.60;;;14.63;;
4700;SDS011;8724;51.272;6.554;2023-09-12T06:56:34;15.40;;;13.77;;
4700;SDS011;8724;51.272;6.554;2023-09-12T06:59:04;19.03;;;13.87;;
4700;SDS011;8724;51.272;6.554;2023-09-12T07:01:33;14.47;;;13.07;;
4700;SDS011;8724;51.272;6.554;2023-09-12T07:04:01;16.47;;;14.73;;
4700;SDS011;8724;51.272;6.554;2023-09-12T07:06:30;17.60;;;15.27;;
4700;SDS011;8724;51.272;6.554;2023-09-12T07:08:59;15.30;;;13.70;;
4700;SDS011;8724;51.272;6.554;2023-09-12T07:11:27;17.07;;;14.47;;
4700;SDS011;8724;51.272;6.554;2023-09-12T07:13:56;15.23;;;13.20;;
4700;SDS011;8724;51.272;6.554;2023-09-12T07:16:25;13.83;;;12.50;;
4700;SDS011;8724;51.272;6.554;2023-09-12T07:18:53;14.03;;;12.53;;
4700;SDS011;8724;51.272;6.554;2023-09-12T07:21:21;12.70;;;11.47;;
4700;SDS011;8724;51.272;6.554;2023-09-12T07:23:49;14.67;;;12.33;;
4700;SDS011;8724;51.272;6.554;2023-09-12T07:26:18;13.30;;;11.33;;
4700;SDS011;8724;51.272;6.554;2023-09-12T07:28:46;14.33;;;12.13;;
4700;SDS011;8724;51.272;6.554;2023-09-12T07:31:16;15.03;;;11.90;;
4700;SDS011;8724;51.272;6.554;2023-09-12T07:33:44;13.30;;;11.90;;
4700;SDS011;8724;51.272;6.554;2023-09-12T07:36:13;13.43;;;12.03;;
4700;SDS011;8724;51.272;6.554;2023-09-12T07:38:41;12.60;;;11.30;;
4700;SDS011;8724;51.272;6.554;2023-09-12T07:41:12;12.20;;;10.87;;
4700;SDS011;8724;51.272;6.554;2023-09-12T07:43:40;14.13;;;12.30;;
4700;SDS011;8724;51.272;6.554;2023-09-12T07:46:08;12.87;;;10.30;;
4700;SDS011;8724;51.272;6.554;2023-09-12T07:48:38;12.30;;;9.90;;
4700;SDS011;8724;51.272;6.554;2023-09-12T07:51:13;15.20;;;13.80;;
4700;SDS011;8724;51.272;6.554;2023-09-12T07:53:44;10.83;;;9.80;;
4700;SDS011;8724;51.272;6.554;2023-09-12T07:56:12;11.27;;;10.17;;
4700;SDS011;8724;51.272;6.554;2023-09-12T07:58:40;10.70;;;9.57;;
4700;SDS011;8724;51.272;6.554;2023-09-12T08:01:09;10.70;;;9.43;;
4700;SDS011;8724;51.272;6.554;2023-09-12T08:03:39;12.90;;;10.27;;
4700;SDS011;8724;51.272;6.554;2023-09-12T08:06:11;10.20;;;8.80;;
4700;SDS011;8724;51.272;6.554;2023-09-12T08:08:39;9.20;;;8.30;;
4700;SDS011;8724;51.272;6.554;2023-09-12T08:11:11;11.20;;;9.20;;
4700;SDS011;8724;51.272;6.554;2023-09-12T08:13:39;12.33;;;9.43;;
4700;SDS011;8724;51.272;6.554;2023-09-12T08:16:08;12.93;;;9.10;;
4700;SDS011;8724;51.272;6.554;2023-09-12T08:18:36;13.03;;;11.70;;
4700;SDS011;8724;51.272;6.554;2023-09-12T08:21:05;14.33;;;12.83;;
4700;SDS011;8724;51.272;6.554;2023-09-12T08:23:33;15.00;;;12.90;;
4700;SDS011;8724;51.272;6.554;2023-09-12T08:26:02;12.10;;;10.90;;
4700;SDS011;8724;51.272;6.554;2023-09-12T08:28:30;14.87;;;13.40;;
4700;SDS011;8724;51.272;6.554;2023-09-12T08:30:58;14.00;;;12.50;;
4700;SDS011;8724;51.272;6.554;2023-09-12T08:33:26;14.10;;;12.70;;
4700;SDS011;8724;51.272;6.554;2023-09-12T08:35:55;13.80;;;12.37;;
4700;SDS011;8724;51.272;6.554;2023-09-12T08:38:26;17.83;;;15.60;;
4700;SDS011;8724;51.272;6.554;2023-09-12T08:40:54;20.07;;;17.73;;
4700;SDS011;8724;51.272;6.554;2023-09-12T08:43:23;15.90;;;13.33;;
4700;SDS011;8724;51.272;6.554;2023-09-12T08:45:51;18.47;;;16.50;;
4700;SDS011;8724;51.272;6.554;2023-09-12T08:48:20;16.70;;;12.63;;
4700;SDS011;8724;51.272;6.554;2023-09-12T08:50:50;15.17;;;12.30;;
4700;SDS011;8724;51.272;6.554;2023-09-12T08:53:20;13.50;;;12.10;;
4700;SDS011;8724;51.272;6.554;2023-09-12T08:55:50;12.90;;;10.20;;
4700;SDS011;8724;51.272;6.554;2023-09-12T08:58:19;9.60;;;8.53;;
4700;SDS011;8724;51.272;6.554;2023-09-12T09:00:50;11.40;;;9.90;;
4700;SDS011;8724;51.272;6.554;2023-09-12T09:03:20;10.17;;;9.27;;
4700;SDS011;8724;51.272;6.554;2023-09-12T09:05:49;10.70;;;8.83;;
4700;SDS011;8724;51.272;6.554;2023-09-12T09:08:20;11.27;;;8.70;;
4700;SDS011;8724;51.272;6.554;2023-09-12T09:10:57;10.40;;;9.40;;
4700;SDS011;8724;51.272;6.554;2023-09-12T09:13:28;14.27;;;11.53;;
4700;SDS011;8724;51.272;6.554;2023-09-12T09:16:10;12.73;;;10.77;;
4700;SDS011;8724;51.272;6.554;2023-09-12T09:18:52;9.70;;;8.70;;
4700;SDS011;8724;51.272;6.554;2023-09-12T09:21:21;11.40;;;10.00;;
4700;SDS011;8724;51.272;6.554;2023-09-12T09:23:52;11.50;;;8.90;;
4700;SDS011;8724;51.272;6.554;2023-09-12T09:26:23;9.40;;;8.50;;
4700;SDS011;8724;51.272;6.554;2023-09-12T09:29:02;8.57;;;7.73;;
4700;SDS011;8724;51.272;6.554;2023-09-12T09:31:31;9.80;;;8.80;;
4700;SDS011;8724;51.272;6.554;2023-09-12T09:34:00;7.90;;;7.17;;
4700;SDS011;8724;51.272;6.554;2023-09-12T09:36:29;10.00;;;9.00;;
4700;SDS011;8724;51.272;6.554;2023-09-12T09:38:59;8.60;;;7.80;;
4700;SDS011;8724;51.272;6.554;2023-09-12T09:41:32;8.90;;;8.00;;
4700;SDS011;8724;51.272;6.554;2023-09-12T09:44:01;9.50;;;6.30;;
4700;SDS011;8724;51.272;6.554;2023-09-12T09:46:30;7.33;;;6.63;;
4700;SDS011;8724;51.272;6.554;2023-09-12T09:48:59;6.20;;;5.60;;
4700;SDS011;8724;51.272;6.554;2023-09-12T09:51:27;9.20;;;8.17;;
4700;SDS011;8724;51.272;6.554;2023-09-12T09:53:57;7.00;;;6.40;;
4700;SDS011;8724;51.272;6.554;2023-09-12T09:56:27;6.47;;;5.57;;
4700;SDS011;8724;51.272;6.554;2023-09-12T09:58:58;6.80;;;5.37;;
4700;SDS011;8724;51.272;6.554;2023-09-12T10:01:27;8.60;;;6.37;;
4700;SDS011;8724;51.272;6.554;2023-09-12T10:03:57;8.90;;;5.50;;
4700;SDS011;8724;51.272;6.554;2023-09-12T10:06:27;5.83;;;4.90;;
4700;SDS011;8724;51.272;6.554;2023-09-12T10:08:57;4.33;;;3.77;;
4700;SDS011;8724;51.272;6.554;2023-09-12T10:11:27;7.10;;;4.37;;
4700;SDS011;8724;51.272;6.554;2023-09-12T10:14:02;4.80;;;4.30;;
4700;SDS011;8724;51.272;6.554;2023-09-12T10:16:31;5.00;;;4.27;;
4700;SDS011;8724;51.272;6.554;2023-09-12T10:19:04;6.50;;;4.13;;
4700;SDS011;8724;51.272;6.554;2023-09-12T10:21:39;4.40;;;3.50;;
4700;SDS011;8724;51.272;6.554;2023-09-12T10:24:14;3.40;;;3.10;;
4700;SDS011;8724;51.272;6.554;2023-09-12T10:26:43;3.77;;;3.43;;
4700;SDS011;8724;51.272;6.554;2023-09-12T10:29:13;3.80;;;3.50;;
4700;SDS011;8724;51.272;6.554;2023-09-12T10:31:42;5.20;;;3.80;;
4700;SDS011;8724;51.272;6.554;2023-09-12T10:34:11;8.63;;;4.70;;
4700;SDS011;8724;51.272;6.554;2023-09-12T10:36:44;3.00;;;2.80;;
4700;SDS011;8724;51.272;6.554;2023-09-12T10:39:14;3.40;;;3.17;;
4700;SDS011;8724;51.272;6.554;2023-09-12T10:41:43;3.47;;;3.17;;
4700;SDS011;8724;51.272;6.554;2023-09-12T10:44:11;3.00;;;2.80;;
4700;SDS011;8724;51.272;6.554;2023-09-12T10:46:45;2.90;;;2.70;;
4700;SDS011;8724;51.272;6.554;2023-09-12T10:49:14;3.00;;;2.77;;
4700;SDS011;8724;51.272;6.554;2023-09-12T10:51:46;2.80;;;2.60;;
4700;SDS011;8724;51.272;6.554;2023-09-12T10:54:15;4.83;;;3.70;;
4700;SDS011;8724;51.272;6.554;2023-09-12T10:57:01;3.63;;;3.33;;
4700;SDS011;8724;51.272;6.554;2023-09-12T10:59:32;3.47;;;3.27;;
4700;SDS011;8724;51.272;6.554;2023-09-12T11:04:56;3.57;;;3.27;;
4700;SDS011;8724;51.272;6.554;2023-09-12T11:07:31;4.33;;;3.70;;
4700;SDS011;8724;51.272;6.554;2023-09-12T11:10:18;3.57;;;3.37;;
4700;SDS011;8724;51.272;6.554;2023-09-12T11:12:48;3.73;;;3.00;;
4700;SDS011;8724;51.272;6.554;2023-09-12T11:15:18;3.00;;;2.80;;
4700;SDS011;8724;51.272;6.554;2023-09-12T11:17:47;3.40;;;3.10;;
4700;SDS011;8724;51.272;6.554;2023-09-12T11:20:17;3.20;;;3.00;;
4700;SDS011;8724;51.272;6.554;2023-09-12T11:22:49;3.10;;;2.80;;
4700;SDS011;8724;51.272;6.554;2023-09-12T11:25:19;2.50;;;2.40;;
4700;SDS011;8724;51.272;6.554;2023-09-12T11:28:02;3.40;;;3.17;;
4700;SDS011;8724;51.272;6.554;2023-09-12T11:30:33;3.33;;;3.03;;
4700;SDS011;8724;51.272;6.554;2023-09-12T11:33:03;2.30;;;2.10;;
4700;SDS011;8724;51.272;6.554;2023-09-12T11:35:35;3.07;;;2.80;;
4700;SDS011;8724;51.272;6.554;2023-09-12T11:38:09;2.90;;;2.70;;
4700;SDS011;8724;51.272;6.554;2023-09-12T11:40:42;4.23;;;3.33;;
4700;SDS011;8724;51.272;6.554;2023-09-12T11:43:22;3.70;;;3.10;;
4700;SDS011;8724;51.272;6.554;2023-09-12T11:45:52;4.30;;;2.90;;
4700;SDS011;8724;51.272;6.554;2023-09-12T11:48:22;4.30;;;3.20;;
4700;SDS011;8724;51.272;6.554;2023-09-12T11:50:51;2.77;;;2.67;;
4700;SDS011;8724;51.272;6.554;2023-09-12T11:53:21;5.47;;;3.37;;
4700;SDS011;8724;51.272;6.554;2023-09-12T11:55:52;3.10;;;2.90;;
4700;SDS011;8724;51.272;6.554;2023-09-12T11:58:22;3.63;;;3.10;;
4700;SDS011;8724;51.272;6.554;2023-09-12T12:00:53;3.50;;;3.20;;
4700;SDS011;8724;51.272;6.554;2023-09-12T12:03:22;5.30;;;3.10;;
4700;SDS011;8724;51.272;6.554;2023-09-12T12:05:52;3.03;;;2.80;;
4700;SDS011;8724;51.272;6.554;2023-09-12T12:08:21;3.97;;;3.60;;
4700;SDS011;8724;51.272;6.554;2023-09-12T12:10:53;3.40;;;3.10;;
4700;SDS011;8724;51.272;6.554;2023-09-12T12:13:21;3.03;;;2.83;;
4700;SDS011;8724;51.272;6.554;2023-09-12T12:15:50;3.77;;;3.47;;
4700;SDS011;8724;51.272;6.554;2023-09-12T12:18:20;3.43;;;3.13;;
4700;SDS011;8724;51.272;6.554;2023-09-12T12:20:48;2.47;;;2.33;;
4700;SDS011;8724;51.272;6.554;2023-09-12T12:23:16;3.03;;;2.73;;
4700;SDS011;8724;51.272;6.554;2023-09-12T12:25:44;2.90;;;2.70;;
4700;SDS011;8724;51.272;6.554;2023-09-12T12:28:13;3.10;;;2.90;;
4700;SDS011;8724;51.272;6.554;2023-09-12T12:30:43;3.33;;;3.03;;
4700;SDS011;8724;51.272;6.554;2023-09-12T12:33:14;2.90;;;2.70;;
4700;SDS011;8724;51.272;6.554;2023-09-12T12:36:03;6.23;;;3.80;;
4700;SDS011;8724;51.272;6.554;2023-09-12T12:38:35;4.03;;;3.47;;
4700;SDS011;8724;51.272;6.554;2023-09-12T12:41:26;3.57;;;3.23;;
4700;SDS011;8724;51.272;6.554;2023-09-12T12:44:14;7.20;;;4.00;;
4700;SDS011;8724;51.272;6.554;2023-09-12T12:46:49;6.50;;;3.83;;
4700;SDS011;8724;51.272;6.554;2023-09-12T12:49:20;3.13;;;2.93;;
4700;SDS011;8724;51.272;6.554;2023-09-12T12:51:49;3.57;;;3.27;;
4700;SDS011;8724;51.272;6.554;2023-09-12T12:54:21;3.13;;;2.93;;
4700;SDS011;8724;51.272;6.554;2023-09-12T12:56:50;3.50;;;3.20;;
4700;SDS011;8724;51.272;6.554;2023-09-12T12:59:19;3.77;;;3.10;;
4700;SDS011;8724;51.272;6.554;2023-09-12T13:01:47;3.30;;;3.03;;
4700;SDS011;8724;51.272;6.554;2023-09-12T13:04:20;3.03;;;2.83;;
4700;SDS011;8724;51.272;6.554;2023-09-12T13:06:48;3.83;;;3.30;;
4700;SDS011;8724;51.272;6.554;2023-09-12T13:09:17;3.50;;;3.30;;
4700;SDS011;8724;51.272;6.554;2023-09-12T13:11:45;4.87;;;3.30;;
4700;SDS011;8724;51.272;6.554;2023-09-12T13:14:13;3.70;;;3.30;;
4700;SDS011;8724;51.272;6.554;2023-09-12T13:16:42;3.80;;;3.37;;
4700;SDS011;8724;51.272;6.554;2023-09-12T13:19:10;3.40;;;3.20;;
4700;SDS011;8724;51.272;6.554;2023-09-12T13:21:40;3.47;;;3.27;;
4700;SDS011;8724;51.272;6.554;2023-09-12T13:24:09;5.33;;;3.00;;
4700;SDS011;8724;51.272;6.554;2023-09-12T13:26:38;3.30;;;3.10;;
4700;SDS011;8724;51.272;6.554;2023-09-12T13:29:06;3.97;;;3.10;;
4700;SDS011;8724;51.272;6.554;2023-09-12T13:31:35;3.97;;;3.67;;
4700;SDS011;8724;51.272;6.554;2023-09-12T13:34:03;4.07;;;3.60;;
4700;SDS011;8724;51.272;6.554;2023-09-12T13:36:31;4.10;;;3.80;;
4700;SDS011;8724;51.272;6.554;2023-09-12T13:39:01;3.77;;;3.50;;
4700;SDS011;8724;51.272;6.554;2023-09-12T13:41:30;3.37;;;3.07;;
4700;SDS011;8724;51.272;6.554;2023-09-12T13:43:58;3.93;;;3.53;;
4700;SDS011;8724;51.272;6.554;2023-09-12T13:46:27;3.37;;;3.17;;
4700;SDS011;8724;51.272;6.554;2023-09-12T13:48:56;3.40;;;3.20;;
4700;SDS011;8724;51.272;6.554;2023-09-12T13:51:27;3.13;;;2.83;;
4700;SDS011;8724;51.272;6.554;2023-09-12T13:53:55;4.43;;;3.40;;
4700;SDS011;8724;51.272;6.554;2023-09-12T13:56:25;4.00;;;3.60;;
4700;SDS011;8724;51.272;6.554;2023-09-12T13:58:53;3.33;;;3.03;;
4700;SDS011;8724;51.272;6.554;2023-09-12T14:01:22;4.80;;;4.30;;
4700;SDS011;8724;51.272;6.554;2023-09-12T14:04:00;4.20;;;3.80;;
4700;SDS011;8724;51.272;6.554;2023-09-12T14:06:31;8.20;;;3.70;;
4700;SDS011;8724;51.272;6.554;2023-09-12T14:09:01;4.97;;;3.90;;
4700;SDS011;8724;51.272;6.554;2023-09-12T14:11:30;4.00;;;3.70;;
4700;SDS011;8724;51.272;6.554;2023-09-12T14:14:02;6.17;;;4.00;;
4700;SDS011;8724;51.272;6.554;2023-09-12T14:16:41;4.00;;;3.70;;
4700;SDS011;8724;51.272;6.554;2023-09-12T14:19:14;3.40;;;3.20;;
4700;SDS011;8724;51.272;6.554;2023-09-12T14:21:43;6.03;;;3.93;;
4700;SDS011;8724;51.272;6.554;2023-09-12T14:24:14;3.70;;;3.40;;
4700;SDS011;8724;51.272;6.554;2023-09-12T14:26:45;4.33;;;4.03;;
4700;SDS011;8724;51.272;6.554;2023-09-12T14:29:15;5.33;;;4.30;;
4700;SDS011;8724;51.272;6.554;2023-09-12T14:31:46;4.27;;;3.90;;
4700;SDS011;8724;51.272;6.554;2023-09-12T14:34:19;6.30;;;3.70;;
4700;SDS011;8724;51.272;6.554;2023-09-12T14:36:48;3.97;;;3.67;;
4700;SDS011;8724;51.272;6.554;2023-09-12T14:39:17;4.60;;;3.40;;
4700;SDS011;8724;51.272;6.554;2023-09-12T14:41:46;4.27;;;3.87;;
4700;SDS011;8724;51.272;6.554;2023-09-12T14:44:18;3.70;;;3.40;;
4700;SDS011;8724;51.272;6.554;2023-09-12T14:46:47;4.50;;;4.10;;
4700;SDS011;8724;51.272;6.554;2023-09-12T14:49:16;4.73;;;3.77;;
4700;SDS011;8724;51.272;6.554;2023-09-12T14:51:44;4.20;;;3.80;;
4700;SDS011;8724;51.272;6.554;2023-09-12T14:54:14;4.17;;;3.87;;
4700;SDS011;8724;51.272;6.554;2023-09-12T14:56:43;3.50;;;3.20;;
4700;SDS011;8724;51.272;6.554;2023-09-12T14:59:12;3.90;;;3.50;;
4700;SDS011;8724;51.272;6.554;2023-09-12T15:01:43;3.70;;;3.40;;
4700;SDS011;8724;51.272;6.554;2023-09-12T15:04:11;3.10;;;2.90;;
4700;SDS011;8724;51.272;6.554;2023-09-12T15:06:40;3.60;;;3.30;;
4700;SDS011;8724;51.272;6.554;2023-09-12T15:09:08;5.07;;;3.70;;
4700;SDS011;8724;51.272;6.554;2023-09-12T15:11:37;3.60;;;3.30;;
4700;SDS011;8724;51.272;6.554;2023-09-12T15:14:06;4.70;;;4.10;;
4700;SDS011;8724;51.272;6.554;2023-09-12T15:16:38;4.30;;;3.83;;
4700;SDS011;8724;51.272;6.554;2023-09-12T15:19:06;4.60;;;3.83;;
4700;SDS011;8724;51.272;6.554;2023-09-12T15:21:35;3.70;;;3.40;;